sensor_id;sensor_type;location;lat;lon;timestamp;P1;durP1;ratioP1;P2;durP2;ratioP2
10293;SDS011;5192;50.328;7.610;2023-05-31T00:00:10;6.80;;;3.90;;
10293;SDS011;5192;50.328;7.610;2023-05-31T00:02:40;8.57;;;3.97;;
10293;SDS011;5192;50.328;7.610;2023-05-31T00:05:06;9.73;;;3.57;;
10293;SDS011;5192;50.328;7.610;2023-05-31T00:07:33;5.60;;;3.37;;
10293;SDS011;5192;50.328;7.610;2023-05-31T00:09:59;8.20;;;3.97;;
10293;SDS011;5192;50.328;7.610;2023-05-31T00:12:26;10.87;;;4.10;;
10293;SDS011;5192;50.328;7.610;2023-05-31T00:14:55;8.13;;;3.50;;
10293;SDS011;5192;50.328;7.610;2023-05-31T00:17:22;8.33;;;3.93;;
10293;SDS011;5192;50.328;7.610;2023-05-31T00:19:48;7.23;;;4.00;;
10293;SDS011;5192;50.328;7.610;2023-05-31T00:22:15;6.87;;;3.80;;
10293;SDS011;5192;50.328;7.610;2023-05-31T00:24:43;6.50;;;3.90;;
10293;SDS011;5192;50.328;7.610;2023-05-31T00:27:11;7.07;;;4.70;;
10293;SDS011;5192;50.328;7.610;2023-05-31T00:29:39;11.00;;;3.73;;
10293;SDS011;5192;50.328;7.610;2023-05-31T00:32:06;6.73;;;3.93;;
10293;SDS011;5192;50.328;7.610;2023-05-31T00:34:32;6.93;;;4.47;;
10293;SDS011;5192;50.328;7.610;2023-05-31T00:37:00;5.20;;;3.73;;
10293;SDS011;5192;50.328;7.610;2023-05-31T00:39:26;5.80;;;4.37;;
10293;SDS011;5192;50.328;7.610;2023-05-31T00:41:54;8.73;;;4.20;;
10293;SDS011;5192;50.328;7.610;2023-05-31T00:44:20;5.87;;;3.93;;
10293;SDS011;5192;50.328;7.610;2023-05-31T00:46:49;7.37;;;4.30;;
10293;SDS011;5192;50.328;7.610;2023-05-31T00:49:18;7.33;;;4.07;;
10293;SDS011;5192;50.328;7.610;2023-05-31T00:51:45;6.67;;;4.10;;
10293;SDS011;5192;50.328;7.610;2023-05-31T00:54:12;5.60;;;4.00;;
10293;SDS011;5192;50.328;7.610;2023-05-31T00:56:40;5.63;;;4.10;;
10293;SDS011;5192;50.328;7.610;2023-05-31T00:59:08;8.57;;;4.50;;
10293;SDS011;5192;50.328;7.610;2023-05-31T01:01:36;7.63;;;4.47;;
10293;SDS011;5192;50.328;7.610;2023-05-31T01:04:04;7.43;;;3.90;;
10293;SDS011;5192;50.328;7.610;2023-05-31T01:06:36;7.20;;;4.03;;
10293;SDS011;5192;50.328;7.610;2023-05-31T01:09:04;6.77;;;4.27;;
10293;SDS011;5192;50.328;7.610;2023-05-31T01:17:27;7.40;;;4.43;;
10293;SDS011;5192;50.328;7.610;2023-05-31T01:20:08;5.73;;;4.30;;
10293;SDS011;5192;50.328;7.610;2023-05-31T01:22:51;7.43;;;4.43;;
10293;SDS011;5192;50.328;7.610;2023-05-31T01:28:12;9.40;;;4.50;;
10293;SDS011;5192;50.328;7.610;2023-05-31T01:30:41;5.90;;;4.53;;
10293;SDS011;5192;50.328;7.610;2023-05-31T01:33:28;7.10;;;4.10;;
10293;SDS011;5192;50.328;7.610;2023-05-31T01:35:58;11.90;;;5.00;;
10293;SDS011;5192;50.328;7.610;2023-05-31T01:38:24;7.43;;;4.37;;
10293;SDS011;5192;50.328;7.610;2023-05-31T01:40:51;6.67;;;4.53;;
10293;SDS011;5192;50.328;7.610;2023-05-31T01:43:22;5.97;;;4.23;;
10293;SDS011;5192;50.328;7.610;2023-05-31T01:45:52;9.07;;;5.00;;
10293;SDS011;5192;50.328;7.610;2023-05-31T01:48:24;5.60;;;4.07;;
10293;SDS011;5192;50.328;7.610;2023-05-31T01:50:57;8.67;;;4.80;;
10293;SDS011;5192;50.328;7.610;2023-05-31T01:53:27;6.10;;;4.73;;
10293;SDS011;5192;50.328;7.610;2023-05-31T01:55:53;5.90;;;4.33;;
10293;SDS011;5192;50.328;7.610;2023-05-31T01:58:20;5.00;;;4.30;;
10293;SDS011;5192;50.328;7.610;2023-05-31T02:00:48;5.70;;;4.60;;
10293;SDS011;5192;50.328;7.610;2023-05-31T02:03:15;6.93;;;4.50;;
10293;SDS011;5192;50.328;7.610;2023-05-31T02:05:58;7.30;;;4.73;;
10293;SDS011;5192;50.328;7.610;2023-05-31T02:08:27;6.57;;;4.57;;
10293;SDS011;5192;50.328;7.610;2023-05-31T02:10:55;6.23;;;4.43;;
10293;SDS011;5192;50.328;7.610;2023-05-31T02:13:24;8.67;;;4.57;;
10293;SDS011;5192;50.328;7.610;2023-05-31T02:15:56;6.80;;;4.77;;
10293;SDS011;5192;50.328;7.610;2023-05-31T02:18:22;9.40;;;4.90;;
10293;SDS011;5192;50.328;7.610;2023-05-31T02:20:52;7.63;;;4.60;;
10293;SDS011;5192;50.328;7.610;2023-05-31T02:23:18;8.43;;;4.67;;
10293;SDS011;5192;50.328;7.610;2023-05-31T02:25:47;8.43;;;4.80;;
10293;SDS011;5192;50.328;7.610;2023-05-31T02:28:17;7.70;;;4.60;;
10293;SDS011;5192;50.328;7.610;2023-05-31T02:30:58;7.63;;;4.23;;
10293;SDS011;5192;50.328;7.610;2023-05-31T02:33:25;7.23;;;4.40;;
10293;SDS011;5192;50.328;7.610;2023-05-31T02:35:54;7.87;;;4.60;;
10293;SDS011;5192;50.328;7.610;2023-05-31T02:38:23;8.13;;;4.90;;
10293;SDS011;5192;50.328;7.610;2023-05-31T02:40:48;7.43;;;4.40;;
10293;SDS011;5192;50.328;7.610;2023-05-31T02:43:15;7.70;;;4.60;;
10293;SDS011;5192;50.328;7.610;2023-05-31T02:45:41;9.70;;;5.00;;
10293;SDS011;5192;50.328;7.610;2023-05-31T02:48:07;11.73;;;5.10;;
10293;SDS011;5192;50.328;7.610;2023-05-31T02:50:34;9.63;;;4.80;;
10293;SDS011;5192;50.328;7.610;2023-05-31T02:52:59;10.27;;;5.37;;
10293;SDS011;5192;50.328;7.610;2023-05-31T02:55:31;8.00;;;4.90;;
10293;SDS011;5192;50.328;7.610;2023-05-31T02:57:57;11.23;;;4.60;;
10293;SDS011;5192;50.328;7.610;2023-05-31T03:00:24;6.93;;;4.40;;
10293;SDS011;5192;50.328;7.610;2023-05-31T03:02:51;7.60;;;4.60;;
10293;SDS011;5192;50.328;7.610;2023-05-31T03:05:19;7.23;;;4.30;;
10293;SDS011;5192;50.328;7.610;2023-05-31T03:07:47;8.07;;;4.63;;
10293;SDS011;5192;50.328;7.610;2023-05-31T03:10:15;7.53;;;4.70;;
10293;SDS011;5192;50.328;7.610;2023-05-31T03:12:42;11.67;;;5.53;;
10293;SDS011;5192;50.328;7.610;2023-05-31T03:15:10;8.97;;;4.50;;
10293;SDS011;5192;50.328;7.610;2023-05-31T03:17:37;7.37;;;4.90;;
10293;SDS011;5192;50.328;7.610;2023-05-31T03:20:05;6.93;;;4.63;;
10293;SDS011;5192;50.328;7.610;2023-05-31T03:22:36;11.30;;;5.10;;
10293;SDS011;5192;50.328;7.610;2023-05-31T03:25:05;8.90;;;4.83;;
10293;SDS011;5192;50.328;7.610;2023-05-31T03:27:36;10.03;;;5.20;;
10293;SDS011;5192;50.328;7.610;2023-05-31T03:30:04;8.20;;;5.20;;
10293;SDS011;5192;50.328;7.610;2023-05-31T03:32:31;6.57;;;5.10;;
10293;SDS011;5192;50.328;7.610;2023-05-31T03:35:00;9.40;;;4.57;;
10293;SDS011;5192;50.328;7.610;2023-05-31T03:37:27;8.33;;;4.97;;
10293;SDS011;5192;50.328;7.610;2023-05-31T03:39:54;9.17;;;5.23;;
10293;SDS011;5192;50.328;7.610;2023-05-31T03:42:22;8.80;;;5.33;;
10293;SDS011;5192;50.328;7.610;2023-05-31T03:44:50;9.87;;;5.27;;
10293;SDS011;5192;50.328;7.610;2023-05-31T03:47:18;9.70;;;5.33;;
10293;SDS011;5192;50.328;7.610;2023-05-31T03:49:45;8.63;;;4.80;;
10293;SDS011;5192;50.328;7.610;2023-05-31T03:52:12;8.17;;;5.50;;
10293;SDS011;5192;50.328;7.610;2023-05-31T03:54:39;7.63;;;4.87;;
10293;SDS011;5192;50.328;7.610;2023-05-31T03:57:06;9.27;;;5.13;;
10293;SDS011;5192;50.328;7.610;2023-05-31T03:59:37;10.50;;;5.03;;
10293;SDS011;5192;50.328;7.610;2023-05-31T04:02:04;11.73;;;5.40;;
10293;SDS011;5192;50.328;7.610;2023-05-31T04:04:32;11.27;;;5.23;;
10293;SDS011;5192;50.328;7.610;2023-05-31T04:06:59;7.20;;;5.60;;
10293;SDS011;5192;50.328;7.610;2023-05-31T04:09:28;8.90;;;5.23;;
10293;SDS011;5192;50.328;7.610;2023-05-31T04:11:56;9.83;;;5.27;;
10293;SDS011;5192;50.328;7.610;2023-05-31T04:14:24;9.67;;;5.10;;
10293;SDS011;5192;50.328;7.610;2023-05-31T04:16:52;8.87;;;5.10;;
10293;SDS011;5192;50.328;7.610;2023-05-31T04:19:19;8.00;;;5.70;;
10293;SDS011;5192;50.328;7.610;2023-05-31T04:21:47;7.47;;;5.57;;
10293;SDS011;5192;50.328;7.610;2023-05-31T04:24:14;8.87;;;5.20;;
10293;SDS011;5192;50.328;7.610;2023-05-31T04:26:44;9.10;;;5.73;;
10293;SDS011;5192;50.328;7.610;2023-05-31T04:29:10;9.10;;;6.53;;
10293;SDS011;5192;50.328;7.610;2023-05-31T04:31:38;8.27;;;5.90;;
10293;SDS011;5192;50.328;7.610;2023-05-31T04:34:03;9.30;;;5.43;;
10293;SDS011;5192;50.328;7.610;2023-05-31T04:36:31;6.30;;;4.83;;
10293;SDS011;5192;50.328;7.610;2023-05-31T04:39:02;11.90;;;5.53;;
10293;SDS011;5192;50.328;7.610;2023-05-31T04:41:36;7.13;;;4.93;;
10293;SDS011;5192;50.328;7.610;2023-05-31T04:44:03;7.13;;;4.90;;
10293;SDS011;5192;50.328;7.610;2023-05-31T04:46:31;8.17;;;5.40;;
10293;SDS011;5192;50.328;7.610;2023-05-31T04:48:58;10.73;;;5.20;;
10293;SDS011;5192;50.328;7.610;2023-05-31T04:51:27;11.10;;;5.83;;
10293;SDS011;5192;50.328;7.610;2023-05-31T04:53:53;8.47;;;5.77;;
10293;SDS011;5192;50.328;7.610;2023-05-31T04:56:22;9.50;;;6.07;;
10293;SDS011;5192;50.328;7.610;2023-05-31T04:58:48;10.23;;;5.80;;
10293;SDS011;5192;50.328;7.610;2023-05-31T05:01:17;6.90;;;5.70;;
10293;SDS011;5192;50.328;7.610;2023-05-31T05:03:43;9.40;;;5.43;;
10293;SDS011;5192;50.328;7.610;2023-05-31T05:06:15;9.93;;;5.37;;
10293;SDS011;5192;50.328;7.610;2023-05-31T05:08:44;10.10;;;5.90;;
10293;SDS011;5192;50.328;7.610;2023-05-31T05:11:12;9.20;;;5.90;;
10293;SDS011;5192;50.328;7.610;2023-05-31T05:13:40;10.67;;;6.33;;
10293;SDS011;5192;50.328;7.610;2023-05-31T05:16:09;11.03;;;5.80;;
10293;SDS011;5192;50.328;7.610;2023-05-31T05:18:35;7.67;;;5.57;;
10293;SDS011;5192;50.328;7.610;2023-05-31T05:21:01;9.50;;;6.07;;
10293;SDS011;5192;50.328;7.610;2023-05-31T05:23:29;13.43;;;6.53;;
10293;SDS011;5192;50.328;7.610;2023-05-31T05:26:00;8.83;;;5.93;;
10293;SDS011;5192;50.328;7.610;2023-05-31T05:28:29;10.53;;;6.03;;
10293;SDS011;5192;50.328;7.610;2023-05-31T05:30:56;11.17;;;6.40;;
10293;SDS011;5192;50.328;7.610;2023-05-31T05:33:23;9.07;;;6.20;;
10293;SDS011;5192;50.328;7.610;2023-05-31T05:35:54;9.47;;;6.00;;
10293;SDS011;5192;50.328;7.610;2023-05-31T05:38:21;12.80;;;6.20;;
10293;SDS011;5192;50.328;7.610;2023-05-31T05:40:47;9.67;;;6.80;;
10293;SDS011;5192;50.328;7.610;2023-05-31T05:43:14;13.67;;;6.20;;
10293;SDS011;5192;50.328;7.610;2023-05-31T05:45:39;10.70;;;7.13;;
10293;SDS011;5192;50.328;7.610;2023-05-31T05:48:08;15.93;;;9.37;;
10293;SDS011;5192;50.328;7.610;2023-05-31T05:50:35;15.43;;;8.27;;
10293;SDS011;5192;50.328;7.610;2023-05-31T05:53:02;9.57;;;6.53;;
10293;SDS011;5192;50.328;7.610;2023-05-31T05:55:33;8.73;;;6.10;;
10293;SDS011;5192;50.328;7.610;2023-05-31T05:58:01;13.83;;;6.83;;
10293;SDS011;5192;50.328;7.610;2023-05-31T06:00:30;9.37;;;6.40;;
10293;SDS011;5192;50.328;7.610;2023-05-31T06:02:56;8.27;;;5.80;;
10293;SDS011;5192;50.328;7.610;2023-05-31T06:05:25;14.67;;;6.57;;
10293;SDS011;5192;50.328;7.610;2023-05-31T06:07:54;10.80;;;5.87;;
10293;SDS011;5192;50.328;7.610;2023-05-31T06:10:21;10.13;;;5.63;;
10293;SDS011;5192;50.328;7.610;2023-05-31T06:12:50;7.83;;;5.80;;
10293;SDS011;5192;50.328;7.610;2023-05-31T06:15:18;6.80;;;5.50;;
10293;SDS011;5192;50.328;7.610;2023-05-31T06:17:44;6.93;;;4.60;;
10293;SDS011;5192;50.328;7.610;2023-05-31T06:20:14;9.63;;;5.03;;
10293;SDS011;5192;50.328;7.610;2023-05-31T06:22:42;8.17;;;4.37;;
10293;SDS011;5192;50.328;7.610;2023-05-31T06:25:11;6.43;;;4.47;;
10293;SDS011;5192;50.328;7.610;2023-05-31T06:27:39;8.27;;;4.53;;
10293;SDS011;5192;50.328;7.610;2023-05-31T06:30:08;7.40;;;4.33;;
10293;SDS011;5192;50.328;7.610;2023-05-31T06:32:35;9.73;;;4.10;;
10293;SDS011;5192;50.328;7.610;2023-05-31T06:35:04;8.23;;;4.17;;
10293;SDS011;5192;50.328;7.610;2023-05-31T06:37:32;6.57;;;4.07;;
10293;SDS011;5192;50.328;7.610;2023-05-31T06:40:00;8.07;;;4.23;;
10293;SDS011;5192;50.328;7.610;2023-05-31T06:42:26;7.20;;;4.03;;
10293;SDS011;5192;50.328;7.610;2023-05-31T06:44:53;9.30;;;4.47;;
10293;SDS011;5192;50.328;7.610;2023-05-31T06:47:21;6.83;;;3.77;;
10293;SDS011;5192;50.328;7.610;2023-05-31T06:49:48;4.73;;;3.80;;
10293;SDS011;5192;50.328;7.610;2023-05-31T06:52:17;7.67;;;3.80;;
10293;SDS011;5192;50.328;7.610;2023-05-31T06:54:44;5.73;;;3.73;;
10293;SDS011;5192;50.328;7.610;2023-05-31T06:57:11;6.00;;;3.63;;
10293;SDS011;5192;50.328;7.610;2023-05-31T06:59:38;7.73;;;3.90;;
10293;SDS011;5192;50.328;7.610;2023-05-31T07:02:03;8.47;;;4.23;;
10293;SDS011;5192;50.328;7.610;2023-05-31T07:04:34;8.10;;;3.60;;
10293;SDS011;5192;50.328;7.610;2023-05-31T07:06:59;4.97;;;3.35;;
10293;SDS011;5192;50.328;7.610;2023-05-31T07:09:28;5.87;;;3.40;;
10293;SDS011;5192;50.328;7.610;2023-05-31T07:11:55;8.37;;;3.90;;
10293;SDS011;5192;50.328;7.610;2023-05-31T07:14:23;7.83;;;3.60;;
10293;SDS011;5192;50.328;7.610;2023-05-31T07:16:50;6.95;;;3.40;;
10293;SDS011;5192;50.328;7.610;2023-05-31T07:19:15;5.80;;;3.20;;
10293;SDS011;5192;50.328;7.610;2023-05-31T07:21:42;4.78;;;3.65;;
10293;SDS011;5192;50.328;7.610;2023-05-31T07:24:10;4.47;;;3.33;;
10293;SDS011;5192;50.328;7.610;2023-05-31T07:26:40;7.37;;;3.40;;
10293;SDS011;5192;50.328;7.610;2023-05-31T07:29:07;4.70;;;3.70;;
10293;SDS011;5192;50.328;7.610;2023-05-31T07:31:35;7.63;;;4.07;;
10293;SDS011;5192;50.328;7.610;2023-05-31T07:34:00;5.32;;;3.33;;
10293;SDS011;5192;50.328;7.610;2023-05-31T07:36:27;5.13;;;3.20;;
10293;SDS011;5192;50.328;7.610;2023-05-31T07:38:56;5.57;;;3.42;;
10293;SDS011;5192;50.328;7.610;2023-05-31T07:41:23;7.88;;;3.25;;
10293;SDS011;5192;50.328;7.610;2023-05-31T07:43:50;7.18;;;3.45;;
10293;SDS011;5192;50.328;7.610;2023-05-31T07:46:20;6.03;;;3.65;;
10293;SDS011;5192;50.328;7.610;2023-05-31T07:48:48;5.18;;;3.30;;
10293;SDS011;5192;50.328;7.610;2023-05-31T07:51:16;4.38;;;3.28;;
10293;SDS011;5192;50.328;7.610;2023-05-31T07:53:44;4.32;;;3.08;;
10293;SDS011;5192;50.328;7.610;2023-05-31T07:56:13;4.97;;;3.55;;
10293;SDS011;5192;50.328;7.610;2023-05-31T07:58:40;5.18;;;3.05;;
10293;SDS011;5192;50.328;7.610;2023-05-31T08:01:08;5.35;;;2.92;;
10293;SDS011;5192;50.328;7.610;2023-05-31T08:03:36;3.75;;;3.40;;
10293;SDS011;5192;50.328;7.610;2023-05-31T08:06:03;7.10;;;3.30;;
10293;SDS011;5192;50.328;7.610;2023-05-31T08:08:32;3.60;;;3.05;;
10293;SDS011;5192;50.328;7.610;2023-05-31T08:11:01;5.55;;;3.35;;
10293;SDS011;5192;50.328;7.610;2023-05-31T08:13:28;4.00;;;3.00;;
10293;SDS011;5192;50.328;7.610;2023-05-31T08:15:56;5.85;;;3.13;;
10293;SDS011;5192;50.328;7.610;2023-05-31T08:18:24;4.75;;;3.20;;
10293;SDS011;5192;50.328;7.610;2023-05-31T08:20:51;7.45;;;3.70;;
10293;SDS011;5192;50.328;7.610;2023-05-31T08:23:17;6.55;;;3.58;;
10293;SDS011;5192;50.328;7.610;2023-05-31T08:25:45;5.15;;;3.75;;
10293;SDS011;5192;50.328;7.610;2023-05-31T08:28:11;4.70;;;3.05;;
10293;SDS011;5192;50.328;7.610;2023-05-31T08:30:39;6.05;;;3.38;;
10293;SDS011;5192;50.328;7.610;2023-05-31T08:33:06;6.68;;;2.95;;
10293;SDS011;5192;50.328;7.610;2023-05-31T08:35:34;6.25;;;3.33;;
10293;SDS011;5192;50.328;7.610;2023-05-31T08:38:00;5.75;;;3.40;;
10293;SDS011;5192;50.328;7.610;2023-05-31T08:40:28;6.95;;;3.40;;
10293;SDS011;5192;50.328;7.610;2023-05-31T08:43:16;5.15;;;3.28;;
10293;SDS011;5192;50.328;7.610;2023-05-31T08:45:49;4.10;;;3.00;;
10293;SDS011;5192;50.328;7.610;2023-05-31T08:51:34;4.93;;;3.20;;
10293;SDS011;5192;50.328;7.610;2023-05-31T08:54:01;6.00;;;2.90;;
10293;SDS011;5192;50.328;7.610;2023-05-31T08:56:30;5.85;;;2.70;;
10293;SDS011;5192;50.328;7.610;2023-05-31T08:58:58;4.57;;;2.78;;
10293;SDS011;5192;50.328;7.610;2023-05-31T09:01:25;5.60;;;3.10;;
10293;SDS011;5192;50.328;7.610;2023-05-31T09:03:53;3.65;;;2.78;;
10293;SDS011;5192;50.328;7.610;2023-05-31T09:06:20;5.72;;;3.15;;
10293;SDS011;5192;50.328;7.610;2023-05-31T09:08:46;3.30;;;2.72;;
10293;SDS011;5192;50.328;7.610;2023-05-31T09:11:14;3.45;;;2.80;;
10293;SDS011;5192;50.328;7.610;2023-05-31T09:13:40;4.15;;;2.60;;
10293;SDS011;5192;50.328;7.610;2023-05-31T09:16:08;6.13;;;2.80;;
10293;SDS011;5192;50.328;7.610;2023-05-31T09:18:37;3.20;;;2.47;;
10293;SDS011;5192;50.328;7.610;2023-05-31T09:21:10;4.15;;;2.88;;
10293;SDS011;5192;50.328;7.610;2023-05-31T09:23:50;5.35;;;2.50;;
10293;SDS011;5192;50.328;7.610;2023-05-31T09:26:23;4.47;;;2.88;;
10293;SDS011;5192;50.328;7.610;2023-05-31T09:28:51;3.92;;;2.60;;
10293;SDS011;5192;50.328;7.610;2023-05-31T09:31:18;3.25;;;2.40;;
10293;SDS011;5192;50.328;7.610;2023-05-31T09:33:46;6.38;;;2.95;;
10293;SDS011;5192;50.328;7.610;2023-05-31T09:36:22;4.60;;;2.65;;
10293;SDS011;5192;50.328;7.610;2023-05-31T09:39:04;4.88;;;2.80;;
10293;SDS011;5192;50.328;7.610;2023-05-31T09:41:34;6.53;;;2.67;;
10293;SDS011;5192;50.328;7.610;2023-05-31T09:44:00;4.72;;;2.60;;
10293;SDS011;5192;50.328;7.610;2023-05-31T09:46:36;3.88;;;2.58;;
10293;SDS011;5192;50.328;7.610;2023-05-31T09:49:05;3.55;;;2.55;;
10293;SDS011;5192;50.328;7.610;2023-05-31T09:51:35;5.07;;;2.53;;
10293;SDS011;5192;50.328;7.610;2023-05-31T09:54:10;3.00;;;2.70;;
10293;SDS011;5192;50.328;7.610;2023-05-31T09:56:40;4.85;;;3.17;;
10293;SDS011;5192;50.328;7.610;2023-05-31T09:59:07;3.70;;;2.63;;
10293;SDS011;5192;50.328;7.610;2023-05-31T10:01:35;4.60;;;3.17;;
10293;SDS011;5192;50.328;7.610;2023-05-31T10:04:02;4.60;;;2.63;;
10293;SDS011;5192;50.328;7.610;2023-05-31T10:06:30;4.80;;;2.70;;
10293;SDS011;5192;50.328;7.610;2023-05-31T10:09:04;9.05;;;2.80;;
10293;SDS011;5192;50.328;7.610;2023-05-31T10:11:35;4.15;;;2.80;;
10293;SDS011;5192;50.328;7.610;2023-05-31T10:14:07;3.95;;;3.05;;
10293;SDS011;5192;50.328;7.610;2023-05-31T10:16:38;3.95;;;2.78;;
10293;SDS011;5192;50.328;7.610;2023-05-31T10:19:16;3.92;;;2.42;;
10293;SDS011;5192;50.328;7.610;2023-05-31T10:21:50;4.47;;;2.58;;
10293;SDS011;5192;50.328;7.610;2023-05-31T10:24:25;3.30;;;2.58;;
10293;SDS011;5192;50.328;7.610;2023-05-31T10:27:12;5.43;;;2.33;;
10293;SDS011;5192;50.328;7.610;2023-05-31T10:29:53;3.70;;;2.60;;
10293;SDS011;5192;50.328;7.610;2023-05-31T10:32:34;4.60;;;2.33;;
10293;SDS011;5192;50.328;7.610;2023-05-31T10:35:12;3.00;;;2.58;;
10293;SDS011;5192;50.328;7.610;2023-05-31T10:37:42;3.88;;;2.20;;
10293;SDS011;5192;50.328;7.610;2023-05-31T10:40:13;5.65;;;2.58;;
10293;SDS011;5192;50.328;7.610;2023-05-31T10:43:34;3.72;;;2.65;;
10293;SDS011;5192;50.328;7.610;2023-05-31T10:46:16;4.22;;;2.58;;
10293;SDS011;5192;50.328;7.610;2023-05-31T10:48:55;4.30;;;2.53;;
10293;SDS011;5192;50.328;7.610;2023-05-31T10:51:45;5.00;;;2.55;;
10293;SDS011;5192;50.328;7.610;2023-05-31T10:54:17;3.53;;;2.40;;
10293;SDS011;5192;50.328;7.610;2023-05-31T10:56:55;4.85;;;2.35;;
10293;SDS011;5192;50.328;7.610;2023-05-31T10:59:23;3.97;;;2.30;;
10293;SDS011;5192;50.328;7.610;2023-05-31T11:01:51;3.72;;;2.40;;
10293;SDS011;5192;50.328;7.610;2023-05-31T11:04:22;3.83;;;2.40;;
10293;SDS011;5192;50.328;7.610;2023-05-31T11:09:42;3.42;;;2.20;;
10293;SDS011;5192;50.328;7.610;2023-05-31T11:12:37;4.15;;;2.50;;
10293;SDS011;5192;50.328;7.610;2023-05-31T11:15:16;3.78;;;2.38;;
10293;SDS011;5192;50.328;7.610;2023-05-31T11:20:26;4.72;;;2.42;;
10293;SDS011;5192;50.328;7.610;2023-05-31T11:28:52;4.97;;;2.30;;
10293;SDS011;5192;50.328;7.610;2023-05-31T11:34:33;4.90;;;2.90;;
10293;SDS011;5192;50.328;7.610;2023-05-31T11:37:02;2.80;;;2.40;;
10293;SDS011;5192;50.328;7.610;2023-05-31T11:39:29;3.92;;;2.78;;
10293;SDS011;5192;50.328;7.610;2023-05-31T11:41:57;5.63;;;2.53;;
10293;SDS011;5192;50.328;7.610;2023-05-31T11:44:29;3.95;;;2.65;;
10293;SDS011;5192;50.328;7.610;2023-05-31T11:47:03;4.68;;;2.35;;
10293;SDS011;5192;50.328;7.610;2023-05-31T11:49:30;4.63;;;2.20;;
10293;SDS011;5192;50.328;7.610;2023-05-31T11:52:00;4.38;;;2.53;;
10293;SDS011;5192;50.328;7.610;2023-05-31T11:54:32;4.05;;;2.42;;
10293;SDS011;5192;50.328;7.610;2023-05-31T11:57:04;8.25;;;2.55;;
10293;SDS011;5192;50.328;7.610;2023-05-31T11:59:48;3.05;;;2.47;;
10293;SDS011;5192;50.328;7.610;2023-05-31T12:02:14;3.25;;;2.55;;
10293;SDS011;5192;50.328;7.610;2023-05-31T12:04:41;2.70;;;2.30;;
10293;SDS011;5192;50.328;7.610;2023-05-31T12:07:10;4.28;;;2.40;;
10293;SDS011;5192;50.328;7.610;2023-05-31T12:09:55;5.20;;;2.33;;
10293;SDS011;5192;50.328;7.610;2023-05-31T12:12:23;3.95;;;2.25;;
10293;SDS011;5192;50.328;7.610;2023-05-31T12:14:49;2.80;;;2.40;;
10293;SDS011;5192;50.328;7.610;2023-05-31T12:17:20;6.28;;;2.33;;
10293;SDS011;5192;50.328;7.610;2023-05-31T12:19:48;5.05;;;2.85;;
10293;SDS011;5192;50.328;7.610;2023-05-31T12:22:15;4.15;;;2.75;;
10293;SDS011;5192;50.328;7.610;2023-05-31T12:24:49;2.75;;;2.50;;
10293;SDS011;5192;50.328;7.610;2023-05-31T12:27:18;6.07;;;2.72;;
10293;SDS011;5192;50.328;7.610;2023-05-31T12:29:47;4.80;;;2.47;;
10293;SDS011;5192;50.328;7.610;2023-05-31T12:32:13;5.00;;;2.40;;
10293;SDS011;5192;50.328;7.610;2023-05-31T12:34:43;4.95;;;2.45;;
10293;SDS011;5192;50.328;7.610;2023-05-31T12:37:11;4.82;;;2.42;;
10293;SDS011;5192;50.328;7.610;2023-05-31T12:39:39;3.38;;;2.05;;
10293;SDS011;5192;50.328;7.610;2023-05-31T12:42:06;4.55;;;2.42;;
10293;SDS011;5192;50.328;7.610;2023-05-31T12:44:33;4.97;;;2.60;;
10293;SDS011;5192;50.328;7.610;2023-05-31T12:47:03;2.97;;;2.42;;
10293;SDS011;5192;50.328;7.610;2023-05-31T12:49:35;4.18;;;2.55;;
10293;SDS011;5192;50.328;7.610;2023-05-31T12:54:48;5.18;;;2.50;;
10293;SDS011;5192;50.328;7.610;2023-05-31T12:57:16;4.88;;;2.50;;
10293;SDS011;5192;50.328;7.610;2023-05-31T12:59:45;3.42;;;2.10;;
10293;SDS011;5192;50.328;7.610;2023-05-31T13:02:12;5.32;;;2.70;;
10293;SDS011;5192;50.328;7.610;2023-05-31T13:04:38;3.85;;;2.70;;
10293;SDS011;5192;50.328;7.610;2023-05-31T13:07:06;5.53;;;2.40;;
10293;SDS011;5192;50.328;7.610;2023-05-31T13:09:32;3.17;;;2.33;;
10293;SDS011;5192;50.328;7.610;2023-05-31T13:12:00;3.80;;;2.33;;
10293;SDS011;5192;50.328;7.610;2023-05-31T13:14:27;4.22;;;2.17;;
10293;SDS011;5192;50.328;7.610;2023-05-31T13:16:54;5.85;;;2.38;;
10293;SDS011;5192;50.328;7.610;2023-05-31T13:19:21;6.32;;;2.20;;
10293;SDS011;5192;50.328;7.610;2023-05-31T13:21:48;2.55;;;2.35;;
10293;SDS011;5192;50.328;7.610;2023-05-31T13:24:14;4.15;;;2.47;;
10293;SDS011;5192;50.328;7.610;2023-05-31T13:26:41;4.50;;;2.28;;
10293;SDS011;5192;50.328;7.610;2023-05-31T13:29:08;4.32;;;2.17;;
10293;SDS011;5192;50.328;7.610;2023-05-31T13:31:35;2.97;;;2.20;;
10293;SDS011;5192;50.328;7.610;2023-05-31T13:34:02;4.10;;;2.17;;
10293;SDS011;5192;50.328;7.610;2023-05-31T13:36:30;5.50;;;2.20;;
10293;SDS011;5192;50.328;7.610;2023-05-31T13:39:00;5.07;;;2.50;;
10293;SDS011;5192;50.328;7.610;2023-05-31T13:41:28;7.10;;;2.40;;
10293;SDS011;5192;50.328;7.610;2023-05-31T13:43:54;2.40;;;2.20;;
10293;SDS011;5192;50.328;7.610;2023-05-31T13:46:22;4.90;;;2.72;;
10293;SDS011;5192;50.328;7.610;2023-05-31T13:48:50;3.63;;;2.55;;
10293;SDS011;5192;50.328;7.610;2023-05-31T13:51:18;4.70;;;2.63;;
10293;SDS011;5192;50.328;7.610;2023-05-31T13:53:44;6.57;;;2.85;;
10293;SDS011;5192;50.328;7.610;2023-05-31T13:56:12;6.07;;;2.63;;
10293;SDS011;5192;50.328;7.610;2023-05-31T13:58:39;5.63;;;2.70;;
10293;SDS011;5192;50.328;7.610;2023-05-31T14:01:07;5.43;;;3.15;;
10293;SDS011;5192;50.328;7.610;2023-05-31T14:03:34;4.45;;;2.90;;
10293;SDS011;5192;50.328;7.610;2023-05-31T14:06:01;7.15;;;2.65;;
10293;SDS011;5192;50.328;7.610;2023-05-31T14:08:29;5.20;;;2.53;;
10293;SDS011;5192;50.328;7.610;2023-05-31T14:10:56;4.82;;;2.47;;
10293;SDS011;5192;50.328;7.610;2023-05-31T14:13:22;3.20;;;2.70;;
10293;SDS011;5192;50.328;7.610;2023-05-31T14:15:51;4.20;;;3.15;;
10293;SDS011;5192;50.328;7.610;2023-05-31T14:18:19;5.95;;;2.78;;
10293;SDS011;5192;50.328;7.610;2023-05-31T14:20:45;3.15;;;2.55;;
10293;SDS011;5192;50.328;7.610;2023-05-31T14:23:14;4.22;;;2.50;;
10293;SDS011;5192;50.328;7.610;2023-05-31T14:25:42;5.18;;;2.58;;
10293;SDS011;5192;50.328;7.610;2023-05-31T14:28:07;3.58;;;2.45;;
10293;SDS011;5192;50.328;7.610;2023-05-31T14:30:35;4.63;;;2.40;;
10293;SDS011;5192;50.328;7.610;2023-05-31T14:33:01;4.60;;;2.88;;
10293;SDS011;5192;50.328;7.610;2023-05-31T14:35:30;3.42;;;2.70;;
10293;SDS011;5192;50.328;7.610;2023-05-31T14:37:58;3.40;;;2.60;;
10293;SDS011;5192;50.328;7.610;2023-05-31T14:40:29;3.58;;;2.78;;
10293;SDS011;5192;50.328;7.610;2023-05-31T14:42:55;2.60;;;2.40;;
10293;SDS011;5192;50.328;7.610;2023-05-31T14:45:21;3.65;;;2.85;;
10293;SDS011;5192;50.328;7.610;2023-05-31T14:47:49;2.95;;;2.45;;
10293;SDS011;5192;50.328;7.610;2023-05-31T14:50:16;5.57;;;2.78;;
10293;SDS011;5192;50.328;7.610;2023-05-31T14:52:44;3.38;;;2.55;;
10293;SDS011;5192;50.328;7.610;2023-05-31T14:55:10;3.83;;;2.60;;
10293;SDS011;5192;50.328;7.610;2023-05-31T14:57:38;4.80;;;2.50;;
10293;SDS011;5192;50.328;7.610;2023-05-31T15:00:07;3.75;;;2.47;;
10293;SDS011;5192;50.328;7.610;2023-05-31T15:02:35;3.83;;;2.47;;
10293;SDS011;5192;50.328;7.610;2023-05-31T15:05:01;3.60;;;2.40;;
10293;SDS011;5192;50.328;7.610;2023-05-31T15:07:28;3.70;;;2.38;;
10293;SDS011;5192;50.328;7.610;2023-05-31T15:09:56;2.67;;;2.25;;
10293;SDS011;5192;50.328;7.610;2023-05-31T15:12:22;3.33;;;2.50;;
10293;SDS011;5192;50.328;7.610;2023-05-31T15:14:51;5.18;;;2.40;;
10293;SDS011;5192;50.328;7.610;2023-05-31T15:17:17;4.82;;;2.50;;
10293;SDS011;5192;50.328;7.610;2023-05-31T15:19:43;5.10;;;2.60;;
10293;SDS011;5192;50.328;7.610;2023-05-31T15:22:09;4.35;;;2.70;;
10293;SDS011;5192;50.328;7.610;2023-05-31T15:24:37;2.85;;;2.50;;
10293;SDS011;5192;50.328;7.610;2023-05-31T15:27:06;4.22;;;2.65;;
10293;SDS011;5192;50.328;7.610;2023-05-31T15:29:33;4.47;;;2.50;;
10293;SDS011;5192;50.328;7.610;2023-05-31T15:32:01;2.92;;;2.30;;
10293;SDS011;5192;50.328;7.610;2023-05-31T15:34:29;4.15;;;2.65;;
10293;SDS011;5192;50.328;7.610;2023-05-31T15:36:57;3.28;;;2.55;;
10293;SDS011;5192;50.328;7.610;2023-05-31T15:39:24;4.35;;;2.70;;